Time,TemperatureF,DewpointF,PressureIn,WindDirection,WindDirectionDegrees,WindSpeedMPH,WindSpeedGustMPH,Humidity,HourlyPrecipIn,Conditions,Clouds,dailyrainin,SoftwareType,DateUTC
2013-08-26 00:14:00,57.0,53.0,30.40,North,0,0.0,0.0,88,0.00,,,0.00,,2013-08-26 04:14:00,
2013-08-26 00:53:00,56.0,52.0,30.40,North,0,0.0,0.0,88,0.00,,,0.00,,2013-08-26 04:53:00,
2013-08-26 01:23:00,56.0,52.0,30.40,North,0,0.0,1.0,88,0.00,,,0.00,,2013-08-26 05:23:00,
2013-08-26 01:52:00,56.0,52.0,30.40,North,0,0.0,1.0,88,0.00,,,0.00,,2013-08-26 05:52:00,
2013-08-26 02:12:00,56.0,52.0,30.38,North,0,0.0,1.0,88,0.00,,,0.00,,2013-08-26 06:12:00,
2013-08-26 02:22:00,56.0,53.0,30.38,North,0,0.0,3.0,89,0.00,,,0.00,,2013-08-26 06:22:00,
2013-08-26 02:52:00,56.0,53.0,30.37,North,0,0.0,2.0,91,0.00,,,0.00,,2013-08-26 06:52:00,
2013-08-26 03:11:00,56.0,53.0,30.37,North,0,0.0,1.0,91,0.00,,,0.00,,2013-08-26 07:11:00,
2013-08-26 03:22:00,56.0,53.0,30.37,North,0,0.0,1.0,91,0.00,,,0.00,,2013-08-26 07:22:00,
2013-08-26 03:52:00,57.0,54.0,30.36,North,0,0.0,3.0,89,0.00,,,0.00,,2013-08-26 07:52:00,
2013-08-26 04:12:00,57.0,54.0,30.36,WNW,301,1.0,6.0,89,0.00,,,0.00,,2013-08-26 08:12:00,
2013-08-26 04:22:00,57.0,54.0,30.35,SW,234,1.0,5.0,89,0.00,,,0.00,,2013-08-26 08:22:00,
2013-08-26 04:52:00,57.0,53.0,30.34,West,280,2.0,6.0,87,0.00,,,0.00,,2013-08-26 08:52:00,
2013-08-26 10:52:00,66.0,55.0,30.36,West,265,1.0,8.0,68,0.00,,,0.00,,2013-08-26 14:52:00,
2013-08-26 11:22:00,67.0,56.0,30.35,West,272,1.0,7.0,69,0.00,,,0.00,,2013-08-26 15:22:00,
2013-08-26 11:59:00,69.0,57.0,30.34,North,0,0.0,3.0,65,0.00,,,0.00,,2013-08-26 15:59:00,
2013-08-26 12:10:00,69.0,57.0,30.34,North,0,0.0,3.0,65,0.00,,,0.00,,2013-08-26 16:10:00,
2013-08-26 12:29:00,70.0,58.0,30.33,WNW,286,1.0,5.0,65,0.00,,,0.00,,2013-08-26 16:29:00,
2013-08-26 12:59:00,70.0,58.0,30.33,WNW,294,1.0,4.0,66,0.00,,,0.00,,2013-08-26 16:59:00,
2013-08-26 13:24:00,71.0,59.0,30.32,North,0,0.0,6.0,65,0.00,,,0.00,,2013-08-26 17:24:00,
2013-08-26 13:53:00,71.0,59.0,30.31,North,0,0.0,4.0,65,0.00,,,0.00,,2013-08-26 17:53:00,
2013-08-26 14:12:00,71.0,59.0,30.30,West,269,1.0,6.0,67,0.00,,,0.00,,2013-08-26 18:12:00,
2013-08-26 14:22:00,70.0,59.0,30.30,SE,129,1.0,3.0,67,0.00,,,0.00,,2013-08-26 18:22:00,
2013-08-26 14:52:00,72.0,58.0,30.29,West,278,1.0,6.0,62,0.00,,,0.00,,2013-08-26 18:52:00,
2013-08-26 15:22:00,73.0,59.0,30.28,WNW,289,2.0,6.0,62,0.00,,,0.00,,2013-08-26 19:22:00,
2013-08-26 15:52:00,73.0,59.0,30.26,NW,320,3.0,7.0,61,0.00,,,0.00,,2013-08-26 19:52:00,
2013-08-26 16:11:00,73.0,59.0,30.25,North,351,2.0,5.0,62,0.00,,,0.00,,2013-08-26 20:11:00,
2013-08-26 16:22:00,73.0,59.0,30.25,North,351,2.0,5.0,62,0.00,,,0.00,,2013-08-26 20:22:00,
2013-08-26 16:32:00,73.0,59.0,30.25,North,351,2.0,5.0,62,0.00,,,0.00,,2013-08-26 20:32:00,
2013-08-26 16:52:00,74.0,59.0,30.24,West,272,3.0,8.0,59,0.00,,,0.00,,2013-08-26 20:52:00,
2013-08-26 17:22:00,74.0,58.0,30.24,WNW,285,1.0,6.0,57,0.00,,,0.00,,2013-08-26 21:22:00,
2013-08-26 17:55:00,74.0,60.0,30.23,West,267,1.0,7.0,61,0.00,,,0.00,,2013-08-26 21:55:00,
2013-08-26 18:26:00,73.0,59.0,30.22,North,0,0.0,3.0,61,0.00,,,0.00,,2013-08-26 22:26:00,
2013-08-26 18:53:00,74.0,59.0,30.21,North,0,0.0,2.0,60,0.00,,,0.00,,2013-08-26 22:53:00,
2013-08-26 19:03:00,74.0,59.0,30.21,North,0,0.0,2.0,60,0.00,,,0.00,,2013-08-26 23:03:00,
2013-08-26 19:22:00,73.0,59.0,30.21,North,0,0.0,3.0,62,0.00,,,0.00,,2013-08-26 23:22:00,
2013-08-26 19:52:00,69.0,60.0,30.21,North,0,0.0,2.0,73,0.00,,,0.00,,2013-08-26 23:52:00,
2013-08-26 20:21:00,66.0,58.0,30.21,North,0,0.0,2.0,76,0.00,,,0.00,,2013-08-27 00:21:00,
2013-08-26 20:52:00,65.0,58.0,30.20,North,0,0.0,1.0,78,0.00,,,0.00,,2013-08-27 00:52:00,
2013-08-26 21:22:00,67.0,58.0,30.20,North,0,0.0,6.0,72,0.00,,,0.00,,2013-08-27 01:22:00,
2013-08-26 21:52:00,67.0,58.0,30.21,West,275,1.0,4.0,73,0.00,,,0.00,,2013-08-27 01:52:00,
2013-08-26 22:02:00,67.0,58.0,30.21,West,275,1.0,4.0,73,0.00,,,0.00,,2013-08-27 02:02:00,
2013-08-26 22:22:00,67.0,58.0,30.22,North,0,0.0,7.0,72,0.00,,,0.00,,2013-08-27 02:22:00,
2013-08-26 22:52:00,68.0,59.0,30.22,West,274,3.0,10.0,72,0.00,,,0.00,,2013-08-27 02:52:00,
2013-08-26 23:22:00,67.0,58.0,30.21,North,0,0.0,5.0,74,0.00,,,0.00,,2013-08-27 03:22:00,